createdAt,value
2018-09-10T00:03:07.992Z,0.20
2018-09-10T00:07:51.833Z,0.10
2018-09-10T00:12:36.401Z,0.20
2018-09-10T00:17:20.278Z,0.20
2018-09-10T00:22:03.656Z,0.20
2018-09-10T00:26:47.033Z,10.10
2018-09-10T00:31:30.457Z,0.20
2018-09-10T00:36:14.923Z,0.33
2018-09-10T00:40:58.377Z,0.20
2018-09-10T00:45:41.912Z,0.20
2018-09-10T00:50:25.373Z,0.20
2018-09-10T00:55:09.994Z,0.30
2018-09-10T00:59:53.593Z,0.53
2018-09-10T01:04:38.095Z,0.20
2018-09-10T01:09:21.570Z,0.20
2018-09-10T01:14:05.170Z,0.20
2018-09-10T01:18:48.645Z,0.10
2018-09-10T01:23:35.821Z,0.20
2018-09-10T01:28:19.251Z,0.10
2018-09-10T01:33:10.011Z,0.20
2018-09-10T01:37:53.303Z,0.20
2018-09-10T01:42:40.405Z,0.10
2018-09-10T01:47:23.835Z,0.20
2018-09-10T01:52:10.334Z,0.20
2018-09-10T01:56:53.718Z,0.20
2018-09-10T02:01:37.017Z,0.23
2018-09-10T02:06:23.469Z,0.20
2018-09-10T02:11:06.773Z,0.20
2018-09-10T02:15:51.715Z,2.60
2018-09-10T02:20:35.114Z,0.20
2018-09-10T02:25:18.768Z,0.40
2018-09-10T02:30:02.069Z,0.20
2018-09-10T02:34:48.478Z,0.20
2018-09-10T02:39:31.882Z,1.33
2018-09-10T02:44:16.408Z,0.20
2018-09-10T02:48:59.741Z,0.20
2018-09-10T02:53:43.238Z,0.20
2018-09-10T02:58:26.679Z,0.17
2018-09-10T03:03:10.330Z,0.20
2018-09-10T03:07:53.683Z,0.20
2018-09-10T03:12:38.173Z,0.10
2018-09-10T03:17:21.639Z,0.30
2018-09-10T03:22:06.288Z,0.73
2018-09-10T03:26:49.754Z,0.20
2018-09-10T03:31:33.188Z,1.23
2018-09-10T03:36:16.531Z,0.20
2018-09-10T03:41:00.474Z,0.20
2018-09-10T03:45:43.989Z,0.20
2018-09-10T03:50:27.480Z,0.47
2018-09-10T03:55:12.017Z,0.20
2018-09-10T03:59:55.281Z,0.20
2018-09-10T04:04:39.816Z,0.30
2018-09-10T04:09:23.114Z,0.20
2018-09-10T04:14:06.628Z,0.10
2018-09-10T04:18:49.999Z,0.20
2018-09-10T04:23:36.985Z,0.13
2018-09-10T04:28:20.449Z,0.20
2018-09-10T04:33:04.021Z,0.67
2018-09-10T04:37:48.503Z,0.20
2018-09-10T04:42:35.325Z,0.20
2018-09-10T04:47:19.666Z,0.20
2018-09-10T04:52:03.346Z,0.30
2018-09-10T04:56:46.698Z,0.50
2018-09-10T05:01:31.352Z,0.20
2018-09-10T05:06:14.816Z,0.33
2018-09-10T05:10:58.774Z,0.20
2018-09-10T05:15:42.248Z,0.20
2018-09-10T05:20:25.612Z,0.10
2018-09-10T05:25:12.334Z,0.20
2018-09-10T05:29:55.663Z,0.10
2018-09-10T05:34:39.591Z,0.20
2018-09-10T05:39:23.041Z,6.60
2018-09-10T05:44:10.415Z,0.10
2018-09-10T05:48:53.887Z,1.23
2018-09-10T05:53:38.304Z,5.53
2018-09-10T05:58:21.994Z,0.20
2018-09-10T06:03:05.961Z,0.20
2018-09-10T06:07:49.594Z,0.20
2018-09-10T06:12:33.071Z,7.03
2018-09-10T06:17:16.732Z,6.30
2018-09-10T06:22:02.834Z,10.67
2018-09-10T06:26:46.167Z,10.67
2018-09-10T06:36:36.454Z,6.20
2018-09-10T06:41:20.122Z,6.70
2018-09-10T06:46:03.485Z,7.80
2018-09-10T06:50:46.923Z,6.20
2018-09-10T06:55:31.482Z,7.10
2018-09-10T07:00:14.875Z,6.50
2018-09-10T07:05:01.248Z,8.57
2018-09-10T07:09:44.612Z,8.33
2018-09-10T07:14:29.173Z,10.03
2018-09-10T07:19:12.487Z,7.60
2018-09-10T07:23:56.047Z,4.80
2018-09-10T07:28:39.505Z,9.00
2018-09-10T07:33:22.997Z,6.03
2018-09-10T07:38:06.478Z,6.13
2018-09-10T07:42:53.755Z,9.63
2018-09-10T07:47:37.154Z,11.93
2018-09-10T07:52:23.926Z,9.60
2018-09-10T07:57:07.241Z,8.77
2018-09-10T08:01:54.390Z,8.17
2018-09-10T08:06:37.749Z,5.53
2018-09-10T08:11:22.195Z,5.70
2018-09-10T08:16:06.226Z,6.60
2018-09-10T08:20:49.617Z,7.03
2018-09-10T08:25:34.354Z,4.43
2018-09-10T08:30:17.782Z,8.23
2018-09-10T08:35:01.933Z,7.70
2018-09-10T08:39:45.378Z,5.57
2018-09-10T08:44:29.734Z,5.60
2018-09-10T08:49:13.106Z,6.83
2018-09-10T08:53:57.722Z,7.23
2018-09-10T08:58:41.212Z,6.30
2018-09-10T09:03:24.612Z,9.07
2018-09-10T09:08:08.159Z,7.87
2018-09-10T09:12:52.018Z,6.67
2018-09-10T09:17:35.535Z,5.27
2018-09-10T09:22:23.205Z,6.00
2018-09-10T09:27:06.698Z,6.63
2018-09-10T09:31:51.137Z,8.53
2018-09-10T09:36:39.882Z,6.07
2018-09-10T09:41:32.590Z,7.10
2018-09-10T09:46:18.121Z,7.10
2018-09-10T09:51:04.189Z,10.13
2018-09-10T09:55:47.379Z,12.03
2018-09-10T10:00:36.021Z,6.53
2018-09-10T10:05:19.729Z,5.90
2018-09-10T10:10:03.123Z,5.57
2018-09-10T10:14:47.607Z,7.13
2018-09-10T10:19:30.950Z,6.53
2018-09-10T10:24:15.389Z,8.07
2018-09-10T10:28:58.831Z,6.33
2018-09-10T10:33:45.405Z,5.13
2018-09-10T10:38:28.895Z,6.77
2018-09-10T10:43:16.166Z,5.60
2018-09-10T10:47:59.495Z,9.63
2018-09-10T10:52:42.917Z,5.07
2018-09-10T10:57:26.346Z,7.90
2018-09-10T11:02:10.009Z,9.10
2018-09-10T11:06:53.310Z,5.87
2018-09-10T11:11:40.206Z,8.77
2018-09-10T11:16:23.669Z,6.93
2018-09-10T11:21:07.150Z,11.40
2018-09-10T11:25:50.601Z,6.53
2018-09-10T11:30:37.326Z,5.37
2018-09-10T11:35:20.679Z,5.30
2018-09-10T11:40:03.970Z,6.83
2018-09-10T11:44:51.030Z,5.80
2018-09-10T11:49:34.281Z,6.53
2018-09-10T11:54:21.020Z,11.40
2018-09-10T11:59:04.450Z,5.23
2018-09-10T12:03:47.844Z,6.17
2018-09-10T12:08:31.023Z,5.83
2018-09-10T12:13:18.529Z,5.23
2018-09-10T12:18:02.090Z,6.30
2018-09-10T12:22:48.982Z,6.77
2018-09-10T12:27:32.258Z,6.03
2018-09-10T12:32:15.742Z,6.47
2018-09-10T12:36:59.023Z,7.00
2018-09-10T12:41:42.510Z,7.00
2018-09-10T12:46:25.801Z,9.63
2018-09-10T12:51:12.666Z,7.53
2018-09-10T12:55:56.245Z,9.97
2018-09-10T13:00:44.330Z,7.93
2018-09-10T13:05:27.610Z,8.77
2018-09-10T13:10:14.915Z,9.37
2018-09-10T13:14:58.286Z,11.97
2018-09-10T13:19:41.692Z,7.37
2018-09-10T13:24:26.286Z,7.77
2018-09-10T13:29:09.891Z,8.07
2018-09-10T13:33:53.473Z,5.83
2018-09-10T13:38:36.874Z,6.17
2018-09-10T13:43:20.517Z,9.20
2018-09-10T13:48:04.062Z,8.07
2018-09-10T13:52:47.614Z,7.23
2018-09-10T13:57:31.026Z,7.60
2018-09-10T14:02:14.551Z,10.13
2018-09-10T14:06:57.966Z,7.40
2018-09-10T14:11:41.732Z,10.10
2018-09-10T14:16:25.270Z,8.97
2018-09-10T14:21:09.027Z,5.47
2018-09-10T14:25:52.475Z,5.07
2018-09-10T14:30:36.998Z,5.47
2018-09-10T14:35:20.403Z,6.77
2018-09-10T14:40:04.854Z,6.33
2018-09-10T14:44:48.351Z,6.83
2018-09-10T14:49:31.860Z,7.97
2018-09-10T14:54:15.502Z,8.27
2018-09-10T14:58:59.044Z,5.60
2018-09-10T15:03:42.542Z,8.93
2018-09-10T15:08:25.901Z,8.37
2018-09-10T15:13:13.079Z,8.37
2018-09-10T15:17:56.486Z,9.97
2018-09-10T15:22:41.323Z,8.57
2018-09-10T15:27:24.779Z,8.77
2018-09-10T15:32:09.355Z,9.30
2018-09-10T15:36:52.798Z,6.73
2018-09-10T15:41:39.734Z,12.03
2018-09-10T15:46:23.138Z,6.53
2018-09-10T15:51:07.672Z,7.40
2018-09-10T15:55:51.022Z,6.30
2018-09-10T16:00:35.339Z,11.50
2018-09-10T16:05:18.923Z,5.77
2018-09-10T16:10:05.667Z,10.20
2018-09-10T16:14:49.209Z,8.77
2018-09-10T16:19:32.687Z,8.93
2018-09-10T16:24:16.131Z,14.13
2018-09-10T16:28:59.525Z,11.13
2018-09-10T16:33:44.779Z,8.70
2018-09-10T16:38:28.107Z,11.53
2018-09-10T16:43:11.474Z,11.50
2018-09-10T16:47:54.890Z,9.73
2018-09-10T16:52:39.578Z,18.37
2018-09-10T16:57:23.329Z,21.07
2018-09-10T17:02:06.907Z,14.50
2018-09-10T17:06:50.207Z,9.47
2018-09-10T17:11:33.692Z,12.43
2018-09-10T17:16:17.590Z,14.70
2018-09-10T17:21:02.063Z,18.30
2018-09-10T17:25:49.167Z,17.33
2018-09-10T17:30:33.801Z,11.97
2018-09-10T17:35:19.221Z,13.17
2018-09-10T17:40:06.191Z,12.27
2018-09-10T17:44:49.604Z,18.87
2018-09-10T17:49:34.862Z,22.40
2018-09-10T17:54:18.603Z,17.93
2018-09-10T17:59:02.096Z,10.50
2018-09-10T18:03:46.747Z,13.73
2018-09-10T18:08:30.218Z,13.37
2018-09-10T18:13:15.071Z,13.20
2018-09-10T18:17:58.782Z,13.03
2018-09-10T18:22:46.451Z,10.23
2018-09-10T18:27:29.932Z,12.77
2018-09-10T18:32:13.930Z,12.07
2018-09-10T18:36:58.418Z,11.47
2018-09-10T18:41:41.989Z,9.93
2018-09-10T18:46:26.730Z,11.83
2018-09-10T18:51:11.639Z,11.30
2018-09-10T18:55:55.162Z,8.80
2018-09-10T19:00:39.780Z,9.00
2018-09-10T19:05:23.254Z,9.57
2018-09-10T19:10:10.004Z,8.47
2018-09-10T19:14:55.551Z,8.93
2018-09-10T19:19:39.915Z,7.13
2018-09-10T19:24:23.365Z,8.20
2018-09-10T19:29:10.624Z,12.67
2018-09-10T19:33:56.023Z,8.67
2018-09-10T19:38:39.716Z,11.33
2018-09-10T19:43:25.198Z,8.97
2018-09-10T19:48:08.434Z,9.00
2018-09-10T19:52:53.511Z,14.37
2018-09-10T19:57:36.912Z,10.50
2018-09-10T20:02:20.486Z,11.00
2018-09-10T20:07:03.894Z,9.23
2018-09-10T20:11:47.539Z,11.43
2018-09-10T20:16:31.070Z,12.77
2018-09-10T20:21:15.015Z,12.83
2018-09-10T20:25:58.488Z,12.07
2018-09-10T20:30:45.078Z,10.83
2018-09-10T20:35:29.376Z,8.00
2018-09-10T20:40:16.477Z,11.47
2018-09-10T20:44:59.970Z,9.07
2018-09-10T20:49:44.709Z,8.13
2018-09-10T20:54:28.574Z,8.30
2018-09-10T20:59:12.242Z,10.07
2018-09-10T21:03:55.790Z,9.20
2018-09-10T21:08:39.132Z,6.57
2018-09-10T21:13:22.707Z,8.30
2018-09-10T21:18:06.069Z,7.33
2018-09-10T21:22:50.541Z,14.73
2018-09-10T21:27:33.947Z,9.80
2018-09-10T21:32:18.481Z,8.47
2018-09-10T21:37:01.970Z,9.53
2018-09-10T21:41:48.044Z,11.57
2018-09-10T21:46:31.511Z,9.23
2018-09-10T21:51:15.253Z,11.40
2018-09-10T21:55:58.648Z,13.37
2018-09-10T22:00:50.482Z,7.87
2018-09-10T22:05:33.889Z,7.37
2018-09-10T22:10:18.841Z,8.30
2018-09-10T22:15:02.207Z,6.93
2018-09-10T22:19:46.844Z,9.13
2018-09-10T22:24:30.181Z,7.00
2018-09-10T22:29:16.993Z,16.93
2018-09-10T22:34:00.369Z,7.37
2018-09-10T22:38:43.758Z,9.00
2018-09-10T22:43:27.295Z,7.67
2018-09-10T22:48:11.189Z,7.10
2018-09-10T22:52:54.995Z,7.43
2018-09-10T22:57:38.351Z,7.93
2018-09-10T23:02:21.859Z,8.43
2018-09-10T23:07:05.237Z,6.90
2018-09-10T23:11:50.657Z,10.17
2018-09-10T23:16:34.453Z,8.93
2018-09-10T23:21:21.278Z,8.80
2018-09-10T23:26:04.693Z,10.17
2018-09-10T23:30:48.310Z,6.80
2018-09-10T23:35:32.032Z,10.13
2018-09-10T23:40:16.602Z,9.93
2018-09-10T23:45:00.034Z,7.70
2018-09-10T23:49:44.612Z,9.30
2018-09-10T23:54:27.966Z,9.07
2018-09-10T23:59:11.418Z,9.63
